SKBOSKRG

Guest
Details From SKBO - Eldorado Intl
To SKRG - Jose Maria Cordova
Flight Number -
Tags Decoded
Created
Modified
Stats Distance 121 nm / 225 km
Max Altitude 19,533 ft / 5,954 m
Waypoints 5
Social Downloads 2
Likes 0
Share VATSIM

Download

Looking for another format? Having issues loading an existing format? Contact us
Advertisement - Login to hide

Notes

Decoded

Route

SKBO BOG MQU RNG SKRG

ID Type Via Altitude Latitude Longitude Leg Dist Tot Dist Heading (true) Name
O SKBO APT - 0 ft / 0 m 4.71050˚ -74.16917˚ - 0 nm - -
BOG VOR - 4,440 ft / 1,353 m 4.84542˚ -74.32464˚ 12 nm 12 nm 311° / 311° BOGOTA VOR-DME
MQU VOR - 19,533 ft / 5,954 m 5.20722˚ -74.92417˚ 41 nm 54 nm 301° / 301° MARIQUITA VOR-DME
RNG VOR - 4,319 ft / 1,316 m 5.98056˚ -75.41833˚ 55 nm 109 nm 328° / 328° RIONEGRO VOR-DME
O SKRG APT - 0 ft / 0 m 6.18036˚ -75.42323˚ 12 nm 121 nm 359° / 359° -

Altitude Profile

Advertisement - Login to hide

SKBO

Details ICAO SKBO (BOG)
Name Bogota - El Dorado Intl
Region Colombia
Timezone America/Bogota (UTC-5.0)
Stats Elevation 8,361 ft / 2,548 m (AMSL)
Location 4.701594° -74.146946°
Runways 2
Magnetic Variation 7.268° W

METAR

SKBO 182000Z 21010KT 9999 SCT020 21/03 A3024

Decode

TAF

Not found

Departure Runways

ID Width Length Bearing (true) Bearing (mag) Surface Threshold Offset Overrun Length
13L 148 ft / 45 m 12,482 ft / 3,804 m 127.21° 134.48° Asphalt 0 ft / 0 m 0 ft / 0 m
13R 148 ft / 45 m 12,494 ft / 3,808 m 127.23° 134.50° Asphalt 0 ft / 0 m 200 ft / 61 m
31L 148 ft / 45 m 12,494 ft / 3,808 m 307.23° 314.50° Asphalt 0 ft / 0 m 190 ft / 58 m
31R 148 ft / 45 m 12,482 ft / 3,804 m 307.21° 314.48° Asphalt 0 ft / 0 m 0 ft / 0 m

SKRG

Details ICAO SKRG (MDE)
Name JOSE MARIA CORDOVA
Region Colombia
Timezone America/Bogota (UTC-5.0)
Stats Elevation 6,955 ft / 2,120 m (AMSL)
Location 6.164532° -75.423119°
Runways 1
Magnetic Variation 6.632° W

METAR

SKRG 182000Z 12006KT 9999 FEW023 23/09 A3021

Decode

TAF

Not found

Destination Runways

ID Width Length Bearing (true) Bearing (mag) Surface Threshold Offset Overrun Length
18 148 ft / 45 m 11,547 ft / 3,520 m 179.62° 186.25° Asphalt 0 ft / 0 m 98 ft / 30 m
36 148 ft / 45 m 11,547 ft / 3,520 m 359.62° 6.25° Asphalt 0 ft / 0 m 98 ft / 30 m

Approach Navaids

Runway Type Ident Frequency Range Bearing (true) Bearing (mag) Slope Elevation
36 Localiser IMDE 110.90 MHz 18 nm / 33 km 359.62° 6.25° - 6,955 ft / 2,120 m (AMSL)
36 Glidescope IMDE 110.90 MHz 10 nm / 19 km 359.62° 6.25° 3.00° 6,955 ft / 2,120 m (AMSL)

Popular Alternatives